Time;durP1;ratioP1;P1;durP2;ratioP2;P2;SDS_P1;SDS_P2;PMS_P1;PMS_P2;Temp;Humidity;BMP_temperature;BMP_pressure;BME280_temperature;BME280_humidity;BME280_pressure;Samples;Min_cycle;Max_cycle;Signal;HPM_P1;HPM_P2
2022/12/12 00:01:22;;;;;;;15.55;11.95;;;;;;;-0.63;66.12;98149.28;5107178;28;20284;-74
2022/12/12 00:03:49;;;;;;;11.68;10.00;;;;;;;-0.45;66.04;98164.38;5106034;28;20044;-74
2022/12/12 00:06:16;;;;;;;12.77;10.35;;;;;;;-0.44;65.98;98167.81;5107381;28;20043;-74
2022/12/12 00:08:44;;;;;;;13.15;9.70;;;;;;;-0.45;65.95;98166.97;5106066;28;20311;-74
2022/12/12 00:11:11;;;;;;;13.77;10.57;;;;;;;-0.46;65.79;98167.00;5105818;28;20230;-73
2022/12/12 00:13:38;;;;;;;12.30;9.85;;;;;;;-0.45;65.82;98166.13;5105798;28;20298;-74
2022/12/12 00:16:06;;;;;;;15.82;10.68;;;;;;;-0.44;65.92;98168.66;5107206;28;20043;-74
2022/12/12 00:18:35;;;;;;;13.25;9.90;;;;;;;-0.46;65.66;98162.66;5106554;28;20052;-74
2022/12/12 00:21:04;;;;;;;14.77;10.23;;;;;;;-0.47;65.54;98165.31;5107118;28;20085;-74
2022/12/12 00:23:30;;;;;;;14.45;10.82;;;;;;;-0.49;65.68;98162.75;5107084;28;20047;-74
2022/12/12 00:26:02;;;;;;;13.85;10.65;;;;;;;-0.47;65.64;98170.50;5106428;28;20051;-74
2022/12/12 00:28:29;;;;;;;13.98;10.30;;;;;;;-0.49;65.62;98178.38;5106423;28;20035;-74
2022/12/12 00:30:56;;;;;;;13.80;9.95;;;;;;;-0.48;65.46;98172.25;5106678;28;20036;-73
2022/12/12 00:33:23;;;;;;;13.57;10.30;;;;;;;-0.50;65.34;98184.47;5106827;28;20040;-73
2022/12/12 00:35:50;;;;;;;16.80;10.32;;;;;;;-1.03;65.50;98092.34;5106232;28;20060;-74
2022/12/12 00:38:18;;;;;;;13.25;10.30;;;;;;;-0.50;65.55;98181.00;5106393;28;20223;-74
2022/12/12 00:40:44;;;;;;;13.23;10.60;;;;;;;-0.49;65.12;98185.31;5106679;28;20249;-74
2022/12/12 00:43:13;;;;;;;13.27;10.48;;;;;;;-0.49;65.24;98183.56;5105513;28;20078;-74
2022/12/12 00:45:39;;;;;;;13.90;10.48;;;;;;;-0.48;65.27;98184.44;5106335;28;20097;-73
2022/12/12 00:48:07;;;;;;;11.95;10.20;;;;;;;-0.50;65.22;98184.47;5106342;28;20052;-74
2022/12/12 00:50:34;;;;;;;13.70;10.50;;;;;;;-0.50;65.12;98186.22;5106378;28;20044;-75
2022/12/12 00:53:01;;;;;;;13.35;9.65;;;;;;;-0.51;65.15;98192.31;5105866;28;20048;-74
2022/12/12 00:55:28;;;;;;;12.70;10.23;;;;;;;-0.52;64.85;98194.06;5106694;28;20086;-74
2022/12/12 00:57:54;;;;;;;12.32;9.57;;;;;;;-0.54;64.96;98193.25;5106504;28;20044;-74
2022/12/12 01:00:23;;;;;;;14.07;11.07;;;;;;;-0.79;65.03;98159.28;5105178;28;20239;-74
2022/12/12 01:02:50;;;;;;;12.95;9.65;;;;;;;-0.55;65.00;98203.72;5106101;28;20158;-73
2022/12/12 01:05:17;;;;;;;12.35;9.35;;;;;;;-0.58;64.93;98209.88;5106293;28;20052;-73
2022/12/12 01:07:44;;;;;;;11.38;9.13;;;;;;;-0.60;64.87;98218.63;5106325;28;20044;-73
2022/12/12 01:10:11;;;;;;;14.45;10.88;;;;;;;-0.60;64.98;98211.66;5106538;28;20047;-74
2022/12/12 01:12:37;;;;;;;13.10;10.07;;;;;;;-0.61;64.78;98206.50;5106201;28;20345;-73
2022/12/12 01:15:06;;;;;;;13.77;10.27;;;;;;;-1.36;64.79;98099.34;5106383;28;20292;-74
2022/12/12 01:17:36;;;;;;;15.18;11.20;;;;;;;-0.65;64.85;98210.09;5106087;28;20260;-73
2022/12/12 01:20:04;;;;;;;13.20;9.27;;;;;;;-0.66;64.69;98208.38;5105216;28;20240;-74
2022/12/12 01:22:33;;;;;;;13.18;9.93;;;;;;;-0.69;64.64;98211.91;5105503;28;20334;-74
2022/12/12 01:25:00;;;;;;;13.45;9.80;;;;;;;-0.73;64.38;98213.75;5104893;28;20044;-74
2022/12/12 01:27:26;;;;;;;13.63;9.15;;;;;;;-0.98;64.46;98178.06;5105997;28;20040;-74
2022/12/12 01:29:54;;;;;;;12.07;9.25;;;;;;;-0.98;64.50;98184.13;5106278;28;20226;-74
2022/12/12 01:32:21;;;;;;;13.07;9.55;;;;;;;-0.82;64.50;98213.16;5105901;28;20104;-73
2022/12/12 01:34:49;;;;;;;13.65;10.93;;;;;;;-0.81;64.41;98207.06;5104608;28;20040;-74
2022/12/12 01:37:17;;;;;;;11.57;8.70;;;;;;;-0.82;64.53;98205.34;5105245;28;20090;-74
2022/12/12 01:39:43;;;;;;;12.15;9.40;;;;;;;-0.85;64.24;98200.25;5104769;28;20315;-73
2022/12/12 01:42:13;;;;;;;11.43;8.68;;;;;;;-0.87;64.35;98199.44;5105877;28;20040;-74
2022/12/12 01:44:45;;;;;;;14.20;9.75;;;;;;;-0.88;64.37;98200.31;5104677;28;20044;-74
2022/12/12 01:47:14;;;;;;;12.50;9.23;;;;;;;-1.49;64.22;98144.75;5105296;28;20089;-74
2022/12/12 01:49:43;;;;;;;12.73;8.98;;;;;;;-0.91;64.30;98195.22;5105791;28;20036;-74
2022/12/12 01:52:17;;;;;;;14.05;9.80;;;;;;;-0.95;63.83;98207.44;5105661;28;20051;-74
2022/12/12 01:54:48;;;;;;;12.63;9.23;;;;;;;-0.98;64.14;98212.72;5105471;28;20303;-74
2022/12/12 01:57:27;;;;;;;12.88;9.85;;;;;;;-0.98;63.65;98206.66;5105438;28;20044;-74
2022/12/12 01:59:54;;;;;;;12.35;10.45;;;;;;;-1.18;63.53;98186.38;5105667;28;20326;-74
2022/12/12 02:02:21;;;;;;;11.15;8.82;;;;;;;-1.06;63.81;98207.69;5105918;28;20040;-74
2022/12/12 02:04:48;;;;;;;11.85;9.40;;;;;;;-1.10;63.68;98195.66;5105550;28;20055;-74
2022/12/12 02:07:17;;;;;;;11.73;8.90;;;;;;;-1.12;63.59;98205.25;5104482;28;20047;-74
2022/12/12 02:09:45;;;;;;;13.50;10.02;;;;;;;-1.15;63.68;98207.94;5104456;28;20250;-73
2022/12/12 02:12:14;;;;;;;13.27;9.55;;;;;;;-1.15;63.57;98204.50;5106029;28;20315;-73
2022/12/12 02:14:43;;;;;;;12.32;9.40;;;;;;;-1.16;63.61;98205.38;5109795;28;20242;-74
2022/12/12 02:17:39;;;;;;;10.45;8.35;;;;;;;-1.17;63.25;98209.72;5109130;28;20093;-74
2022/12/12 02:20:39;;;;;;;11.52;8.70;;;;;;;-1.19;63.05;98205.47;5108258;28;20093;-74
2022/12/12 02:23:42;;;;;;;11.73;9.10;;;;;;;-1.19;62.97;98211.50;5108225;28;20040;-74
2022/12/12 02:26:47;;;;;;;12.65;9.02;;;;;;;-1.22;63.12;98214.19;5108983;28;20051;-74
2022/12/12 02:29:58;;;;;;;10.88;8.88;;;;;;;-1.28;62.67;98211.75;5109023;28;20067;-74
2022/12/12 02:32:38;;;;;;;11.63;9.10;;;;;;;-1.32;63.53;98213.59;5109075;28;20047;-74
2022/12/12 02:35:15;;;;;;;11.68;9.10;;;;;;;-2.13;63.44;98089.22;5109023;28;20041;-73
2022/12/12 02:37:51;;;;;;;14.13;9.32;;;;;;;-1.35;63.35;98211.06;5108774;28;20052;-74
2022/12/12 02:40:24;;;;;;;13.50;10.38;;;;;;;-1.33;63.73;98214.47;5109235;28;20219;-74
2022/12/12 02:42:59;;;;;;;12.88;9.35;;;;;;;-1.34;63.45;98217.13;5107817;28;20044;-74
2022/12/12 02:45:35;;;;;;;11.90;9.18;;;;;;;-1.37;63.51;98218.03;5108351;28;20231;-74
2022/12/12 02:48:11;;;;;;;12.32;9.73;;;;;;;-1.40;63.34;98215.53;5108572;28;20044;-74
2022/12/12 02:50:39;;;;;;;10.18;8.88;;;;;;;-1.39;63.63;98216.38;5109258;28;20044;-73
2022/12/12 02:53:06;;;;;;;11.27;9.30;;;;;;;-1.55;63.75;98187.31;5108686;28;20296;-74
2022/12/12 02:55:33;;;;;;;11.48;8.68;;;;;;;-1.36;63.53;98218.91;5108978;28;20040;-74
2022/12/12 02:58:00;;;;;;;9.63;8.25;;;;;;;-1.38;63.74;98218.94;5107523;28;20302;-73
2022/12/12 03:00:35;;;;;;;13.90;10.05;;;;;;;-1.37;63.77;98223.25;5107526;28;20044;-73
2022/12/12 03:09:07;;;;;;;12.20;8.65;;;;;;;-1.46;63.95;98231.28;5108423;28;20046;-73
2022/12/12 03:11:50;;;;;;;11.68;8.77;;;;;;;-1.47;63.80;98231.31;5108645;28;20098;-74
2022/12/12 03:14:23;;;;;;;9.68;7.90;;;;;;;-1.46;64.33;98230.41;5108233;28;20040;-74
2022/12/12 03:17:01;;;;;;;9.68;7.82;;;;;;;-1.49;64.16;98225.28;5108285;28;20185;-74
2022/12/12 03:19:36;;;;;;;10.55;8.38;;;;;;;-1.68;64.04;98210.16;5107999;28;20036;-74
2022/12/12 03:22:11;;;;;;;9.93;8.07;;;;;;;-1.52;63.93;98236.63;5107940;28;20056;-73
2022/12/12 03:24:47;;;;;;;12.38;8.95;;;;;;;-1.73;63.93;98206.81;5108216;28;20063;-73
2022/12/12 03:27:18;;;;;;;11.30;8.65;;;;;;;-1.53;63.94;98236.66;5108469;28;20048;-73
2022/12/12 03:29:52;;;;;;;10.18;7.95;;;;;;;-1.55;64.14;98235.84;5106975;28;20040;-74
2022/12/12 03:32:23;;;;;;;11.25;8.60;;;;;;;-1.56;64.04;98231.53;5107940;28;20060;-74
2022/12/12 03:34:56;;;;;;;9.93;7.85;;;;;;;-1.56;64.02;98236.72;5108045;28;20349;-74
2022/12/12 03:37:27;;;;;;;10.35;8.02;;;;;;;-1.57;63.94;98227.22;5107878;28;20052;-73
2022/12/12 03:39:57;;;;;;;10.25;8.00;;;;;;;-1.59;63.98;98235.06;5107630;28;20200;-74
2022/12/12 03:42:29;;;;;;;10.20;8.88;;;;;;;-1.62;64.13;98242.94;5108076;28;20051;-74
2022/12/12 03:45:01;;;;;;;13.85;8.57;;;;;;;-1.65;64.00;98236.06;5107450;28;20085;-74
2022/12/12 03:47:33;;;;;;;10.95;8.10;;;;;;;-1.65;64.22;98241.25;5107993;28;20230;-73
2022/12/12 03:50:06;;;;;;;9.25;7.18;;;;;;;-1.65;64.09;98243.00;5107124;28;20036;-72
2022/12/12 03:52:37;;;;;;;9.48;7.18;;;;;;;-2.25;64.05;98162.19;5106471;28;20051;-73
2022/12/12 03:55:08;;;;;;;8.32;7.43;;;;;;;-2.31;63.66;98158.00;5107224;28;20039;-73
2022/12/12 03:57:39;;;;;;;10.52;8.02;;;;;;;-1.64;64.07;98244.72;5107224;28;20040;-73
2022/12/12 04:00:09;;;;;;;9.63;8.15;;;;;;;-1.83;64.02;98210.53;5106320;28;20307;-73
2022/12/12 04:02:41;;;;;;;10.93;7.45;;;;;;;-1.62;63.74;98242.06;5106295;28;20127;-73
2022/12/12 04:05:16;;;;;;;11.05;8.10;;;;;;;-1.59;63.44;98236.81;5106089;28;20300;-73
2022/12/12 04:07:48;;;;;;;11.27;8.27;;;;;;;-1.59;63.68;98236.81;5107292;28;20043;-73
2022/12/12 04:13:10;;;;;;;11.83;9.20;;;;;;;-1.65;63.17;98238.66;5107183;28;20048;-74
2022/12/12 04:15:54;;;;;;;10.75;7.55;;;;;;;-1.89;63.08;98196.84;5106882;28;20422;-73
2022/12/12 04:18:29;;;;;;;9.95;8.10;;;;;;;-1.64;63.21;98234.31;5106824;28;20047;-73
2022/12/12 04:24:00;;;;;;;10.05;8.50;;;;;;;-1.68;63.08;98249.13;5107078;28;20047;-74
2022/12/12 04:26:39;;;;;;;12.38;8.73;;;;;;;-1.70;63.18;98240.50;5106109;28;20040;-74
2022/12/12 04:29:19;;;;;;;9.18;7.45;;;;;;;-1.68;62.77;98230.94;5106855;28;20204;-74
2022/12/12 04:31:50;;;;;;;8.95;7.18;;;;;;;-2.33;62.89;98134.69;5106770;28;20097;-72
2022/12/12 04:34:26;;;;;;;9.93;7.82;;;;;;;-1.64;63.04;98234.31;5106421;28;20048;-72
2022/12/12 04:36:54;;;;;;;10.35;7.75;;;;;;;-1.64;62.89;98249.91;5106347;28;20342;-71
2022/12/12 04:39:22;;;;;;;10.25;8.18;;;;;;;-1.64;63.03;98231.72;5105554;28;20044;-72
2022/12/12 04:41:52;;;;;;;9.90;8.35;;;;;;;-1.61;63.16;98234.25;5106630;28;20070;-72
2022/12/12 04:44:21;;;;;;;10.18;8.48;;;;;;;-1.59;63.17;98242.00;5106827;28;20418;-72
2022/12/12 04:46:51;;;;;;;9.93;8.05;;;;;;;-1.58;63.24;98254.97;5106820;28;20047;-73
2022/12/12 04:49:21;;;;;;;10.25;7.32;;;;;;;-1.57;62.96;98246.28;5105353;28;20288;-73
2022/12/12 04:51:52;;;;;;;10.35;7.63;;;;;;;-1.56;62.89;98254.91;5105914;28;20044;-73
2022/12/12 04:54:25;;;;;;;10.43;8.20;;;;;;;-1.57;63.03;98269.66;5106351;28;20040;-73
2022/12/12 04:56:56;;;;;;;12.57;9.65;;;;;;;-1.60;62.81;98255.88;5105255;28;20047;-74
2022/12/12 04:59:24;;;;;;;11.85;9.05;;;;;;;-1.81;63.23;98221.72;5105226;28;20039;-72
2022/12/12 05:01:56;;;;;;;13.18;8.15;;;;;;;-1.61;63.48;98252.44;5105210;28;20044;-73
2022/12/12 05:04:30;;;;;;;12.18;8.98;;;;;;;-1.61;63.37;98255.03;5105184;28;20036;-73
2022/12/12 05:07:00;;;;;;;11.85;9.10;;;;;;;-1.61;63.43;98256.78;5105120;28;20119;-73
2022/12/12 05:09:28;;;;;;;13.13;10.35;;;;;;;-1.67;63.43;98269.03;5105665;28;20215;-73
2022/12/12 05:11:55;;;;;;;11.82;8.90;;;;;;;-1.69;63.47;98264.75;5105068;28;20048;-74
2022/12/12 05:14:22;;;;;;;11.02;8.93;;;;;;;-1.72;63.54;98273.47;5105506;28;20040;-73
2022/12/12 05:16:53;;;;;;;11.88;9.70;;;;;;;-1.74;63.71;98264.84;5105811;28;20052;-73
2022/12/12 05:19:20;;;;;;;11.70;8.90;;;;;;;-1.74;63.86;98261.41;5106356;28;20113;-73
2022/12/12 05:21:48;;;;;;;13.23;10.18;;;;;;;-1.74;63.90;98258.81;5105822;28;20231;-73
2022/12/12 05:24:14;;;;;;;11.68;8.82;;;;;;;-1.75;63.78;98265.75;5105787;28;20257;-74
2022/12/12 05:26:42;;;;;;;14.05;9.68;;;;;;;-1.72;63.98;98257.88;5106300;28;20043;-74
2022/12/12 05:29:09;;;;;;;12.77;9.60;;;;;;;-2.13;63.89;98203.44;5105343;28;20044;-73
2022/12/12 05:31:36;;;;;;;12.45;10.02;;;;;;;-1.73;63.81;98268.31;5105588;28;20052;-73
2022/12/12 05:34:03;;;;;;;14.73;11.32;;;;;;;-1.75;63.84;98273.53;5104719;28;20039;-72
2022/12/12 05:36:30;;;;;;;13.02;9.45;;;;;;;-1.74;64.08;98262.25;5104895;28;20055;-73
2022/12/12 05:38:56;;;;;;;12.73;9.20;;;;;;;-1.72;63.71;98268.28;5105902;28;20051;-73
2022/12/12 05:41:23;;;;;;;11.93;9.20;;;;;;;-1.73;63.86;98273.50;5106086;28;20044;-74
2022/12/12 05:43:51;;;;;;;14.15;9.60;;;;;;;-1.74;64.16;98277.84;5106145;28;20107;-73
2022/12/12 05:46:18;;;;;;;13.73;10.70;;;;;;;-2.57;64.05;98135.22;5105276;28;20044;-74
2022/12/12 05:48:49;;;;;;;11.82;9.05;;;;;;;-1.71;63.96;98285.56;5109130;28;20223;-73
2022/12/12 05:51:16;;;;;;;13.48;10.23;;;;;;;-1.72;63.90;98275.22;5109576;28;20040;-74
2022/12/12 05:53:44;;;;;;;12.02;9.38;;;;;;;-1.73;63.98;98273.50;5110098;28;20048;-74
2022/12/12 05:56:11;;;;;;;12.13;9.15;;;;;;;-1.75;64.40;98283.94;5109528;28;20190;-74
2022/12/12 05:58:38;;;;;;;13.52;10.18;;;;;;;-1.72;64.33;98283.00;5109255;28;20089;-74
2022/12/12 06:01:07;;;;;;;13.35;10.23;;;;;;;-1.76;64.94;98282.22;5109431;28;20044;-74
2022/12/12 06:03:34;;;;;;;14.25;10.30;;;;;;;-1.74;64.82;98282.19;5109680;28;20097;-73
2022/12/12 06:06:01;;;;;;;13.90;11.10;;;;;;;-1.72;65.27;98283.84;5108445;28;20047;-74
2022/12/12 06:08:28;;;;;;;13.55;10.40;;;;;;;-1.88;65.34;98251.34;5109574;28;20307;-74
2022/12/12 06:10:55;;;;;;;12.30;10.15;;;;;;;-1.87;65.65;98259.97;5109543;28;20044;-74
2022/12/12 06:13:21;;;;;;;12.52;9.05;;;;;;;-1.69;66.40;98294.19;5109033;28;20185;-74
2022/12/12 06:15:48;;;;;;;12.15;9.80;;;;;;;-1.69;66.84;98293.31;5109706;28;20157;-74
2022/12/12 06:18:16;;;;;;;13.27;9.75;;;;;;;-1.82;67.23;98271.13;5108327;28;20047;-74
2022/12/12 06:20:43;;;;;;;13.82;10.85;;;;;;;-1.66;67.69;98295.84;5108233;28;20040;-73
2022/12/12 06:23:10;;;;;;;14.48;10.82;;;;;;;-1.63;67.95;98300.13;5108736;28;20051;-73
2022/12/12 06:25:36;;;;;;;12.95;9.88;;;;;;;-1.62;67.88;98309.63;5109004;28;20044;-74
2022/12/12 06:28:03;;;;;;;11.95;8.93;;;;;;;-1.63;67.94;98311.38;5108034;28;20093;-73
2022/12/12 06:30:31;;;;;;;11.43;9.07;;;;;;;-1.61;67.81;98306.13;5108763;28;20063;-74
2022/12/12 06:32:57;;;;;;;13.73;10.30;;;;;;;-1.61;68.00;98309.59;5109055;28;20101;-73
2022/12/12 06:35:25;;;;;;;11.60;8.80;;;;;;;-1.60;67.78;98307.84;5108954;28;20316;-74
2022/12/12 06:37:52;;;;;;;11.90;7.68;;;;;;;-1.61;67.80;98311.34;5108524;28;20246;-73
2022/12/12 06:40:19;;;;;;;11.60;7.95;;;;;;;-1.63;67.35;98310.50;5109140;28;20044;-73
2022/12/12 06:42:46;;;;;;;11.98;8.52;;;;;;;-1.67;67.35;98308.00;5108653;28;20040;-73
2022/12/12 06:45:13;;;;;;;11.25;7.97;;;;;;;-1.87;67.53;98273.81;5108791;28;20102;-74
2022/12/12 06:47:39;;;;;;;10.18;8.25;;;;;;;-1.69;67.78;98317.56;5109034;28;20039;-74
2022/12/12 06:50:06;;;;;;;10.98;8.43;;;;;;;-1.70;67.61;98315.00;5107571;28;20046;-74
2022/12/12 06:52:34;;;;;;;11.43;7.80;;;;;;;-1.70;67.81;98322.78;5108311;28;20316;-73
2022/12/12 06:55:01;;;;;;;11.05;7.65;;;;;;;-1.71;67.82;98318.47;5108614;28;20036;-73
2022/12/12 06:57:28;;;;;;;10.77;7.25;;;;;;;-1.72;67.73;98322.81;5107821;28;20063;-72
2022/12/12 06:59:55;;;;;;;11.40;7.47;;;;;;;-1.72;67.76;98319.38;5107840;28;20048;-73
2022/12/12 07:02:22;;;;;;;10.32;7.05;;;;;;;-1.73;67.51;98326.31;5108256;28;20300;-74
2022/12/12 07:04:48;;;;;;;11.10;7.78;;;;;;;-1.73;67.65;98331.50;5107443;28;20124;-74
2022/12/12 07:07:15;;;;;;;11.55;8.45;;;;;;;-1.72;67.60;98335.81;5107402;28;20097;-74
2022/12/12 07:09:45;;;;;;;10.88;7.78;;;;;;;-1.73;67.61;98339.31;5107360;28;20241;-73
2022/12/12 07:12:11;;;;;;;10.48;8.10;;;;;;;-1.93;67.83;98305.13;5107288;28;20338;-73
2022/12/12 07:14:38;;;;;;;11.63;7.57;;;;;;;-1.75;67.67;98335.03;5107995;28;20051;-74
2022/12/12 07:17:05;;;;;;;9.13;6.78;;;;;;;-1.75;67.72;98335.03;5108390;28;20044;-74
2022/12/12 07:19:32;;;;;;;11.60;7.60;;;;;;;-1.79;67.61;98344.63;5108158;28;20052;-74
2022/12/12 07:21:59;;;;;;;10.63;7.35;;;;;;;-1.83;67.86;98350.78;5108039;28;20056;-73
2022/12/12 07:24:26;;;;;;;12.65;7.90;;;;;;;-1.84;67.54;98341.28;5108430;28;20040;-74
2022/12/12 07:26:54;;;;;;;11.75;8.30;;;;;;;-1.85;67.66;98343.91;5108313;28;20051;-74
2022/12/12 07:29:20;;;;;;;11.60;7.65;;;;;;;-1.86;67.54;98345.66;5108080;28;20047;-74
2022/12/12 07:31:47;;;;;;;10.25;7.07;;;;;;;-1.85;67.96;98342.16;5106724;28;20040;-73
2022/12/12 07:34:14;;;;;;;11.73;8.07;;;;;;;-1.83;67.61;98345.59;5106393;28;20089;-74
2022/12/12 07:36:41;;;;;;;11.75;8.07;;;;;;;-1.84;67.73;98343.88;5107356;28;20059;-74
2022/12/12 07:39:08;;;;;;;9.75;7.28;;;;;;;-1.86;67.96;98348.25;5107579;28;20078;-74
2022/12/12 07:41:34;;;;;;;13.65;8.20;;;;;;;-1.85;67.80;98357.75;5107946;28;20094;-73
2022/12/12 07:44:03;;;;;;;10.52;7.32;;;;;;;-1.86;68.11;98357.78;5107458;28;20043;-73
2022/12/12 07:46:30;;;;;;;10.88;7.60;;;;;;;-1.87;68.17;98362.13;5106500;28;20044;-74
2022/12/12 07:48:57;;;;;;;11.35;8.10;;;;;;;-1.86;68.28;98355.19;5106658;28;20048;-73
2022/12/12 07:51:24;;;;;;;11.90;8.75;;;;;;;-1.88;68.60;98360.41;5107745;28;20044;-74
2022/12/12 07:53:50;;;;;;;9.98;7.57;;;;;;;-1.84;68.51;98356.00;5106769;28;20036;-73
2022/12/12 07:56:18;;;;;;;10.57;8.05;;;;;;;-1.83;68.48;98357.72;5107748;28;20044;-73
2022/12/12 07:58:45;;;;;;;12.00;8.20;;;;;;;-1.82;68.67;98359.44;5107689;28;20059;-74
2022/12/12 08:01:16;;;;;;;11.50;8.05;;;;;;;-1.84;68.39;98358.59;5106509;28;20044;-74
2022/12/12 08:03:44;;;;;;;10.05;7.22;;;;;;;-1.82;68.45;98364.63;5107049;28;20040;-74
2022/12/12 08:06:11;;;;;;;11.80;7.93;;;;;;;-1.80;68.54;98363.69;5107083;28;20216;-74
2022/12/12 08:08:38;;;;;;;11.10;8.40;;;;;;;-1.78;68.38;98361.94;5105823;28;20223;-73
2022/12/12 08:11:06;;;;;;;10.23;6.80;;;;;;;-1.78;67.71;98364.53;5106841;28;20098;-73
2022/12/12 08:13:35;;;;;;;10.40;7.75;;;;;;;-2.01;67.29;98352.03;5106736;28;20315;-74
2022/12/12 08:16:02;;;;;;;13.90;9.57;;;;;;;-2.50;67.07;98245.78;5106356;28;20315;-73
2022/12/12 08:18:30;;;;;;;11.32;7.47;;;;;;;-1.91;66.66;98342.28;5106019;28;20035;-74
2022/12/12 08:20:57;;;;;;;11.32;7.57;;;;;;;-1.77;65.93;98378.38;5107039;28;20097;-73
2022/12/12 08:23:24;;;;;;;12.82;8.13;;;;;;;-1.79;65.66;98375.81;5106973;28;20052;-73
2022/12/12 08:25:51;;;;;;;11.27;7.65;;;;;;;-1.75;65.39;98381.78;5106725;28;20040;-73
2022/12/12 08:28:17;;;;;;;10.95;7.45;;;;;;;-1.71;65.08;98383.44;5106631;28;20082;-73
2022/12/12 08:30:48;;;;;;;10.90;8.32;;;;;;;-1.72;64.85;98377.38;5105751;28;20300;-73
2022/12/12 08:33:15;;;;;;;10.95;7.57;;;;;;;-1.70;65.13;98391.19;5106887;28;20044;-73
2022/12/12 08:35:43;;;;;;;10.13;7.20;;;;;;;-1.65;64.96;98393.69;5105940;28;20093;-73
2022/12/12 08:38:10;;;;;;;9.63;7.18;;;;;;;-2.69;64.75;98218.50;5106585;28;20048;-73
2022/12/12 08:40:37;;;;;;;11.20;8.55;;;;;;;-1.82;64.72;98360.28;5106368;28;20085;-74
2022/12/12 08:43:03;;;;;;;10.50;7.88;;;;;;;-1.59;64.72;98390.09;5106227;28;20214;-74
2022/12/12 08:45:30;;;;;;;13.05;7.95;;;;;;;-1.57;64.23;98416.91;5106464;28;20062;-73
2022/12/12 08:47:57;;;;;;;10.50;7.35;;;;;;;-1.56;63.80;98408.22;5106863;28;20093;-73
2022/12/12 08:50:24;;;;;;;11.95;7.95;;;;;;;-1.59;64.08;98405.69;5105575;28;20204;-74
2022/12/12 08:52:53;;;;;;;11.52;9.43;;;;;;;-1.59;63.83;98410.88;5105468;28;20334;-74
2022/12/12 08:55:20;;;;;;;12.15;8.75;;;;;;;-1.59;64.16;98418.69;5106486;28;20050;-73
2022/12/12 08:57:46;;;;;;;12.23;7.90;;;;;;;-1.55;64.02;98418.59;5106268;28;20123;-74
2022/12/12 09:00:14;;;;;;;13.23;9.32;;;;;;;-1.55;64.03;98422.94;5106367;28;20040;-73
2022/12/12 09:02:41;;;;;;;11.38;8.55;;;;;;;-1.53;64.19;98418.56;5106714;28;20338;-73
2022/12/12 09:05:08;;;;;;;12.75;9.23;;;;;;;-1.51;64.41;98424.56;5106303;28;20101;-73
2022/12/12 09:07:36;;;;;;;14.20;10.57;;;;;;;-1.48;64.36;98434.91;5106109;28;20044;-73
2022/12/12 09:10:05;;;;;;;13.70;9.68;;;;;;;-1.48;64.16;98435.75;5104994;28;20040;-74
2022/12/12 09:12:32;;;;;;;12.20;10.35;;;;;;;-1.48;63.86;98440.97;5106152;28;20303;-73
2022/12/12 09:14:59;;;;;;;14.07;10.43;;;;;;;-1.49;64.14;98436.66;5105843;28;20322;-73
2022/12/12 09:17:25;;;;;;;15.43;11.02;;;;;;;-1.49;64.46;98441.84;5106307;28;20047;-74
2022/12/12 09:19:52;;;;;;;13.57;10.45;;;;;;;-1.49;64.17;98441.00;5105858;28;20334;-74
2022/12/12 09:22:19;;;;;;;14.70;10.52;;;;;;;-1.50;64.21;98450.53;5105693;28;20090;-73
2022/12/12 09:24:46;;;;;;;15.18;10.98;;;;;;;-1.52;64.06;98444.50;5106011;28;20059;-74
2022/12/12 09:27:14;;;;;;;14.02;9.85;;;;;;;-1.74;64.03;98405.13;5105816;28;20060;-74
2022/12/12 09:29:41;;;;;;;16.42;10.00;;;;;;;-1.52;63.69;98447.09;5106015;28;20043;-74
2022/12/12 09:32:08;;;;;;;14.00;10.60;;;;;;;-1.51;63.90;98442.75;5105361;28;20050;-74
2022/12/12 09:34:37;;;;;;;14.07;10.63;;;;;;;-1.49;63.57;98451.38;5106178;28;20044;-74
2022/12/12 09:37:03;;;;;;;13.55;10.52;;;;;;;-1.48;63.70;98445.28;5105326;28;20220;-74
2022/12/12 09:39:31;;;;;;;13.63;10.07;;;;;;;-1.46;63.69;98439.19;5104858;28;20051;-74
2022/12/12 09:41:57;;;;;;;14.13;10.70;;;;;;;-1.44;63.71;98454.75;5106041;28;20098;-74
2022/12/12 09:44:26;;;;;;;15.02;10.82;;;;;;;-1.41;63.52;98446.88;5105508;28;20230;-74
2022/12/12 09:46:57;;;;;;;13.35;10.00;;;;;;;-1.43;63.30;98443.47;5104489;28;20040;-74
2022/12/12 09:49:31;;;;;;;14.20;11.15;;;;;;;-1.66;63.33;98403.22;5104570;28;20081;-74
2022/12/12 09:51:59;;;;;;;14.32;10.40;;;;;;;-1.42;63.26;98438.22;5104274;28;20063;-73
2022/12/12 09:54:27;;;;;;;15.88;10.77;;;;;;;-1.36;63.37;98438.09;5105423;28;20051;-74
2022/12/12 09:57:04;;;;;;;14.35;10.35;;;;;;;-1.33;63.30;98434.56;5105229;28;20044;-73
2022/12/12 09:59:41;;;;;;;13.88;9.70;;;;;;;-1.27;62.43;98443.97;5105058;28;20212;-74
2022/12/12 10:02:30;;;;;;;12.98;9.48;;;;;;;-1.27;61.95;98443.97;5104913;28;20040;-74
2022/12/12 10:05:01;;;;;;;11.30;8.90;;;;;;;-1.26;62.35;98441.34;5104119;28;20086;-73
2022/12/12 10:07:37;;;;;;;12.05;9.38;;;;;;;-1.23;62.40;98438.66;5104582;28;20040;-73
2022/12/12 10:10:13;;;;;;;14.02;9.63;;;;;;;-1.17;62.19;98437.69;5105270;28;20059;-74
2022/12/12 10:12:41;;;;;;;13.98;10.07;;;;;;;-1.14;62.64;98429.81;5105021;28;20054;-73
2022/12/12 10:15:25;;;;;;;13.63;8.57;;;;;;;-1.11;62.23;98441.00;5104038;28;20036;-73
2022/12/12 10:17:52;;;;;;;13.07;9.63;;;;;;;-1.08;62.75;98440.91;5105256;28;20044;-74
2022/12/12 10:20:22;;;;;;;15.90;10.65;;;;;;;-1.67;62.51;98362.53;5103991;28;20039;-74
2022/12/12 10:22:56;;;;;;;12.65;8.93;;;;;;;-1.92;62.59;98309.44;5105077;28;20349;-73
2022/12/12 10:25:26;;;;;;;14.10;9.73;;;;;;;-1.04;62.76;98441.72;5104864;28;20052;-74
2022/12/12 10:27:56;;;;;;;13.18;9.45;;;;;;;-1.07;62.83;98445.22;5104830;28;20051;-73
2022/12/12 10:30:24;;;;;;;14.40;10.10;;;;;;;-1.23;63.30;98424.81;5103937;28;20295;-73
2022/12/12 10:33:14;;;;;;;13.73;10.57;;;;;;;-1.08;63.36;98443.53;5105991;28;20097;-73
2022/12/12 10:35:49;;;;;;;13.38;9.85;;;;;;;-1.11;63.23;98451.41;5108185;28;20063;-73
2022/12/12 10:38:39;;;;;;;14.57;9.88;;;;;;;-1.32;62.96;98410.28;5107394;28;20105;-72
2022/12/12 10:41:16;;;;;;;12.70;9.10;;;;;;;-1.12;63.35;98436.69;5108416;28;20085;-73
2022/12/12 10:43:51;;;;;;;13.52;10.18;;;;;;;-1.12;63.40;98435.81;5107482;28;20054;-73
2022/12/12 10:46:28;;;;;;;13.90;10.20;;;;;;;-1.16;63.35;98432.44;5108826;28;20231;-72
2022/12/12 10:48:56;;;;;;;19.48;10.73;;;;;;;-1.16;63.56;98431.59;5107504;28;20295;-73
2022/12/12 10:51:27;;;;;;;14.25;10.45;;;;;;;-1.14;63.86;98438.47;5108626;28;20040;-72
2022/12/12 10:53:53;;;;;;;18.83;10.73;;;;;;;-1.73;63.93;98344.50;5108490;28;20055;-73
2022/12/12 10:56:22;;;;;;;15.02;10.35;;;;;;;-1.06;64.20;98439.13;5107036;28;20040;-73
2022/12/12 10:58:53;;;;;;;14.20;9.82;;;;;;;-1.23;64.09;98402.28;5108213;28;20044;-72
2022/12/12 11:01:25;;;;;;;12.75;9.50;;;;;;;-1.06;63.86;98440.88;5107067;28;20044;-72
2022/12/12 11:03:53;;;;;;;12.30;9.35;;;;;;;-1.06;63.88;98431.34;5108744;28;20044;-72
2022/12/12 11:06:29;;;;;;;15.80;10.90;;;;;;;-1.05;63.72;98432.19;5108232;28;20055;-73
2022/12/12 11:08:58;;;;;;;13.77;10.75;;;;;;;-1.03;63.86;98448.63;5107084;28;20040;-72
2022/12/12 11:11:27;;;;;;;14.40;10.02;;;;;;;-1.04;63.92;98434.75;5106977;28;20047;-73
2022/12/12 11:13:56;;;;;;;14.45;9.60;;;;;;;-1.01;64.08;98429.50;5107061;28;20089;-72
2022/12/12 11:16:26;;;;;;;14.23;10.52;;;;;;;-1.01;64.34;98454.63;5107714;28;20207;-72
2022/12/12 11:19:03;;;;;;;14.70;9.82;;;;;;;-1.02;64.04;98432.13;5106770;28;20044;-73
2022/12/12 11:21:33;;;;;;;12.88;9.32;;;;;;;-1.02;64.21;98437.31;5107561;28;20355;-73
2022/12/12 11:24:03;;;;;;;14.13;10.00;;;;;;;-1.05;64.34;98435.66;5107656;28;20185;-73
2022/12/12 11:26:30;;;;;;;12.40;8.75;;;;;;;-1.02;64.62;98430.38;5106595;28;20036;-73
2022/12/12 11:28:59;;;;;;;11.48;8.75;;;;;;;-1.02;64.58;98432.97;5107255;28;20048;-72
2022/12/12 11:31:29;;;;;;;14.05;10.20;;;;;;;-0.99;64.79;98442.50;5107854;28;20204;-73
2022/12/12 11:33:59;;;;;;;13.75;10.23;;;;;;;-0.99;64.50;98431.22;5107443;28;20200;-72
2022/12/12 11:36:32;;;;;;;13.65;9.25;;;;;;;-0.98;65.04;98440.75;5107050;28;20055;-72
2022/12/12 11:39:01;;;;;;;14.38;9.32;;;;;;;-0.94;65.12;98444.97;5107867;28;20044;-72
2022/12/12 11:41:28;;;;;;;15.50;9.63;;;;;;;-0.91;64.80;98432.75;5107268;28;20059;-72
2022/12/12 11:43:59;;;;;;;14.23;9.77;;;;;;;-4.69;64.75;97800.38;5107254;28;20215;-73
2022/12/12 11:46:30;;;;;;;11.85;8.88;;;;;;;-0.86;65.00;98436.09;5107048;28;20055;-72
2022/12/12 11:48:59;;;;;;;14.43;9.05;;;;;;;-0.75;64.95;98435.84;5106538;28;20084;-71